Time;durP1;ratioP1;P1;durP2;ratioP2;P2;SDS_P1;SDS_P2;PMS_P1;PMS_P2;Temp;Humidity;BMP_temperature;BMP_pressure;BME280_temperature;BME280_humidity;BME280_pressure;Samples;Min_cycle;Max_cycle;Signal;HPM_P1;HPM_P2
2022/12/08 00:01:16;;;;;;;10.33;9.23;;;3.50;99.90;;;;;;5054493;28;20453;-60
2022/12/08 00:03:44;;;;;;;10.97;9.07;;;3.40;99.90;;;;;;5053959;28;20481;-60
2022/12/08 00:09:24;;;;;;;8.63;7.67;;;3.40;99.90;;;;;;5054399;28;20497;-60
2022/12/08 00:11:54;;;;;;;8.70;7.80;;;3.40;99.90;;;;;;5054217;28;20429;-60
2022/12/08 00:14:26;;;;;;;10.63;8.80;;;3.40;99.90;;;;;;5053913;28;20441;-60
2022/12/08 00:16:54;;;;;;;10.67;8.63;;;3.50;99.90;;;;;;5053997;28;20457;-60
2022/12/08 00:19:22;;;;;;;10.67;8.47;;;3.70;99.90;;;;;;5054226;28;20454;-60
2022/12/08 00:21:49;;;;;;;11.70;8.67;;;3.70;99.90;;;;;;5054237;28;20449;-60
2022/12/08 00:24:17;;;;;;;10.27;7.50;;;3.70;99.90;;;;;;5053642;28;20484;-60
2022/12/08 00:26:45;;;;;;;9.50;8.17;;;3.80;99.90;;;;;;5053910;28;20473;-60
2022/12/08 00:29:13;;;;;;;10.43;7.83;;;3.70;99.90;;;;;;5053789;28;20436;-60
2022/12/08 00:31:42;;;;;;;12.50;9.13;;;3.70;99.90;;;;;;5053732;28;20452;-60
2022/12/08 00:34:09;;;;;;;11.53;9.07;;;3.70;99.90;;;;;;5053991;28;20445;-60
2022/12/08 00:36:37;;;;;;;10.50;9.10;;;3.80;99.90;;;;;;5053592;28;20560;-60
2022/12/08 00:39:09;;;;;;;13.50;8.70;;;3.70;99.90;;;;;;5053878;28;20449;-60
2022/12/08 00:44:21;;;;;;;10.33;9.23;;;3.60;99.90;;;;;;5053496;28;20989;-60
2022/12/08 00:46:50;;;;;;;11.07;8.80;;;3.40;99.90;;;;;;5053363;28;20470;-60
2022/12/08 00:49:18;;;;;;;10.80;7.70;;;3.30;99.90;;;;;;5053605;28;20453;-60
2022/12/08 00:51:45;;;;;;;10.90;8.73;;;3.20;99.90;;;;;;5053376;28;20452;-60
2022/12/08 00:54:13;;;;;;;8.90;7.53;;;3.30;99.90;;;;;;5053143;28;20950;-60
2022/12/08 00:56:41;;;;;;;8.60;7.47;;;3.30;99.90;;;;;;5053269;28;20465;-60
2022/12/08 00:59:08;;;;;;;9.97;8.60;;;3.30;99.90;;;;;;5053354;28;20460;-60
2022/12/08 01:01:36;;;;;;;8.67;7.70;;;3.30;99.90;;;;;;5053241;28;20974;-60
2022/12/08 01:04:06;;;;;;;11.80;9.07;;;3.30;99.90;;;;;;5053332;28;20487;-60
2022/12/08 01:06:35;;;;;;;14.33;8.40;;;3.30;99.90;;;;;;5053430;28;20536;-60
2022/12/08 01:09:03;;;;;;;9.70;8.60;;;3.20;99.90;;;;;;5053356;28;20460;-60
2022/12/08 01:11:31;;;;;;;11.30;8.20;;;3.10;99.90;;;;;;5053172;28;20448;-60
2022/12/08 01:13:58;;;;;;;8.77;7.77;;;3.00;99.90;;;;;;5053058;28;20457;-60
2022/12/08 01:16:27;;;;;;;11.00;8.80;;;3.00;99.90;;;;;;5053036;28;20473;-60
2022/12/08 01:18:56;;;;;;;10.40;8.40;;;2.90;99.90;;;;;;5053491;28;20454;-60
2022/12/08 01:21:25;;;;;;;9.20;8.17;;;2.90;99.90;;;;;;5053150;28;20452;-60
2022/12/08 01:23:53;;;;;;;8.00;7.20;;;2.90;99.90;;;;;;5052910;28;20488;-60
2022/12/08 01:26:21;;;;;;;8.83;6.90;;;2.90;99.90;;;;;;5053405;28;20473;-60
2022/12/08 01:28:48;;;;;;;8.43;7.60;;;2.90;99.90;;;;;;5052704;28;20525;-60
2022/12/08 01:31:18;;;;;;;8.73;7.83;;;2.80;99.90;;;;;;5053159;28;20456;-60
2022/12/08 01:33:45;;;;;;;10.47;8.63;;;2.80;99.90;;;;;;5052897;28;20453;-60
2022/12/08 01:36:20;;;;;;;9.23;7.90;;;2.70;99.90;;;;;;5052904;28;20465;-60
2022/12/08 01:38:49;;;;;;;9.33;8.00;;;2.60;99.90;;;;;;5053138;28;20469;-60
2022/12/08 01:41:18;;;;;;;9.60;7.20;;;2.50;99.90;;;;;;5052908;28;20441;-60
2022/12/08 01:43:57;;;;;;;9.00;7.50;;;2.40;99.90;;;;;;5052828;28;20453;-60
2022/12/08 01:46:25;;;;;;;12.33;9.17;;;2.40;99.90;;;;;;5053014;28;20812;-60
2022/12/08 01:48:56;;;;;;;10.47;8.23;;;2.30;99.90;;;;;;5053133;28;20449;-60
2022/12/08 01:54:51;;;;;;;9.93;7.47;;;2.20;99.90;;;;;;5052874;28;20412;-60
2022/12/08 01:57:22;;;;;;;11.07;7.97;;;2.10;99.90;;;;;;5052658;28;20525;-60
2022/12/08 01:59:54;;;;;;;7.83;6.70;;;2.10;99.90;;;;;;5052762;28;20479;-60
2022/12/08 02:02:23;;;;;;;9.73;7.87;;;2.10;99.90;;;;;;5052478;28;20434;-60
2022/12/08 02:04:50;;;;;;;10.40;8.00;;;2.10;99.90;;;;;;5052600;28;20485;-60
2022/12/08 02:07:18;;;;;;;8.00;6.53;;;2.10;99.90;;;;;;5052537;28;20570;-60
2022/12/08 02:09:48;;;;;;;11.30;8.23;;;2.10;99.90;;;;;;5052709;28;20449;-60
2022/12/08 02:12:15;;;;;;;9.40;7.67;;;2.10;99.90;;;;;;5052768;28;20539;-60
2022/12/08 02:14:43;;;;;;;9.53;7.97;;;2.10;99.90;;;;;;5052523;28;20484;-60
2022/12/08 02:17:19;;;;;;;8.27;7.47;;;2.20;99.90;;;;;;5052283;28;20464;-60
2022/12/08 02:20:23;;;;;;;8.80;7.20;;;2.30;99.90;;;;;;5052967;28;20429;-60
2022/12/08 02:23:33;;;;;;;8.70;7.73;;;2.30;99.90;;;;;;5052686;28;20428;-60
2022/12/08 02:26:46;;;;;;;8.50;7.30;;;2.20;99.90;;;;;;5052757;28;20497;-60
2022/12/08 02:29:40;;;;;;;9.13;7.63;;;2.00;99.90;;;;;;5055722;28;20425;-60
2022/12/08 02:32:29;;;;;;;10.30;7.07;;;2.10;99.90;;;;;;5055967;28;20883;-60
2022/12/08 02:35:02;;;;;;;10.50;7.83;;;2.00;99.90;;;;;;5056164;28;20472;-60
2022/12/08 02:37:33;;;;;;;8.60;7.10;;;2.00;99.90;;;;;;5056400;28;20431;-60
2022/12/08 02:40:14;;;;;;;10.20;7.60;;;2.00;99.90;;;;;;5055832;28;20425;-60
2022/12/08 02:42:47;;;;;;;7.37;6.63;;;1.90;99.90;;;;;;5056439;28;20438;-59
2022/12/08 02:45:19;;;;;;;10.57;7.73;;;2.00;99.90;;;;;;5056089;28;20510;-60
2022/12/08 02:47:47;;;;;;;10.57;7.10;;;2.00;99.90;;;;;;5055964;28;20429;-60
2022/12/08 02:50:16;;;;;;;8.30;7.50;;;2.00;99.90;;;;;;5055719;28;20786;-60
2022/12/08 02:52:46;;;;;;;8.63;7.10;;;2.00;99.90;;;;;;5055644;28;20445;-59
2022/12/08 02:55:25;;;;;;;9.40;6.40;;;2.10;99.90;;;;;;5055663;28;20474;-60
2022/12/08 02:58:18;;;;;;;10.43;7.13;;;2.00;99.90;;;;;;5055792;28;20767;-60
2022/12/08 03:01:00;;;;;;;8.70;7.50;;;1.90;99.90;;;;;;5046160;28;20453;-60
2022/12/08 03:03:34;;;;;;;8.60;7.07;;;1.80;99.90;;;;;;5055510;28;20923;-59
2022/12/08 03:06:11;;;;;;;8.60;7.70;;;1.90;99.90;;;;;;5055226;28;20495;-60
2022/12/08 03:08:47;;;;;;;9.40;8.40;;;1.80;99.90;;;;;;5055333;28;20436;-60
2022/12/08 03:11:19;;;;;;;9.17;7.93;;;1.80;99.90;;;;;;5055446;28;20892;-60
2022/12/08 03:13:50;;;;;;;7.60;6.50;;;1.80;99.90;;;;;;5055180;28;20436;-60
2022/12/08 03:16:23;;;;;;;8.63;7.70;;;1.80;99.90;;;;;;5055202;28;20461;-60
2022/12/08 03:18:56;;;;;;;8.27;7.47;;;1.80;99.90;;;;;;5055355;28;20897;-60
2022/12/08 03:21:26;;;;;;;8.60;6.90;;;1.80;99.90;;;;;;5055531;28;20429;-60
2022/12/08 03:23:56;;;;;;;7.53;6.77;;;1.60;99.90;;;;;;5054942;28;20445;-60
2022/12/08 03:26:30;;;;;;;9.30;7.73;;;1.50;99.90;;;;;;5055560;28;20493;-60
2022/12/08 03:28:58;;;;;;;11.10;7.73;;;1.60;99.90;;;;;;5055071;28;20430;-60
2022/12/08 03:31:29;;;;;;;8.57;7.67;;;1.60;99.90;;;;;;5054815;28;20460;-60
2022/12/08 03:33:58;;;;;;;8.53;7.70;;;1.60;99.90;;;;;;5054930;28;20426;-59
2022/12/08 03:36:27;;;;;;;9.50;7.20;;;1.60;99.90;;;;;;5054953;28;20544;-60
2022/12/08 03:38:55;;;;;;;10.53;7.80;;;1.60;99.90;;;;;;5054404;28;20441;-59
2022/12/08 03:41:23;;;;;;;9.10;8.10;;;1.60;99.90;;;;;;5054706;28;20445;-59
2022/12/08 03:43:53;;;;;;;8.67;7.77;;;1.60;99.90;;;;;;5054692;28;20532;-60
2022/12/08 03:46:21;;;;;;;7.27;6.53;;;1.60;99.90;;;;;;5054581;28;20493;-60
2022/12/08 03:48:49;;;;;;;8.87;7.80;;;1.60;99.90;;;;;;5054833;28;20449;-60
2022/12/08 03:51:17;;;;;;;10.73;8.43;;;1.50;99.90;;;;;;5054772;28;20449;-60
2022/12/08 03:53:46;;;;;;;7.73;7.03;;;1.50;99.90;;;;;;5054539;28;20511;-59
2022/12/08 03:56:19;;;;;;;9.00;7.97;;;1.50;99.90;;;;;;5054729;28;20473;-60
2022/12/08 03:58:47;;;;;;;12.33;7.80;;;1.40;99.90;;;;;;5054917;28;20468;-61
2022/12/08 04:01:14;;;;;;;7.83;6.30;;;1.50;99.90;;;;;;5054239;28;20959;-60
2022/12/08 04:03:41;;;;;;;8.23;7.43;;;1.40;99.90;;;;;;5054399;28;20452;-60
2022/12/08 04:06:09;;;;;;;8.30;7.20;;;1.50;99.90;;;;;;5054362;28;20859;-60
2022/12/08 04:08:36;;;;;;;9.00;7.13;;;1.50;99.90;;;;;;5054169;28;20950;-60
2022/12/08 04:11:06;;;;;;;12.03;7.47;;;1.50;99.90;;;;;;5054398;28;20453;-60
2022/12/08 04:13:33;;;;;;;9.47;8.57;;;1.40;99.90;;;;;;5054317;28;20453;-59
2022/12/08 04:16:01;;;;;;;8.50;7.67;;;1.40;99.90;;;;;;5053881;28;20474;-59
2022/12/08 04:18:29;;;;;;;10.67;7.70;;;1.40;99.90;;;;;;5054033;28;20456;-59
2022/12/08 04:20:56;;;;;;;7.50;6.70;;;1.20;99.90;;;;;;5054310;28;20456;-60
2022/12/08 04:23:23;;;;;;;9.27;6.90;;;1.30;99.90;;;;;;5053967;28;20449;-60
2022/12/08 04:25:52;;;;;;;9.53;7.30;;;1.30;99.90;;;;;;5054188;28;21045;-60
2022/12/08 04:28:21;;;;;;;7.10;6.40;;;1.20;99.90;;;;;;5053786;28;20483;-60
2022/12/08 04:30:49;;;;;;;7.93;7.13;;;1.00;99.90;;;;;;5053919;28;20457;-60
2022/12/08 04:33:17;;;;;;;9.43;7.73;;;1.10;99.90;;;;;;5053999;28;20454;-59
2022/12/08 04:35:44;;;;;;;12.80;8.83;;;1.20;99.90;;;;;;5053983;28;20484;-59
2022/12/08 04:38:12;;;;;;;9.53;7.30;;;1.20;99.90;;;;;;5053876;28;20456;-59
2022/12/08 04:40:40;;;;;;;9.97;8.40;;;1.10;99.90;;;;;;5053955;28;20825;-59
2022/12/08 04:43:08;;;;;;;9.00;8.10;;;1.20;99.90;;;;;;5053468;28;20932;-59
2022/12/08 04:45:40;;;;;;;8.23;7.33;;;1.10;99.90;;;;;;5053318;28;20485;-59
2022/12/08 04:48:07;;;;;;;9.90;7.27;;;1.10;99.90;;;;;;5053453;28;20483;-59
2022/12/08 04:50:35;;;;;;;10.50;8.80;;;1.20;99.90;;;;;;5053133;28;20453;-59
2022/12/08 04:53:02;;;;;;;8.40;7.40;;;1.00;99.90;;;;;;5053618;28;20445;-59
2022/12/08 04:55:30;;;;;;;8.07;7.10;;;1.00;99.90;;;;;;5053670;28;20477;-59
2022/12/08 04:57:57;;;;;;;8.10;6.60;;;0.90;99.90;;;;;;5053578;28;20458;-59
2022/12/08 05:00:24;;;;;;;9.40;7.50;;;0.90;99.90;;;;;;5053588;28;20460;-59
2022/12/08 05:02:53;;;;;;;8.37;7.50;;;1.00;99.90;;;;;;5053494;28;20448;-59
2022/12/08 05:05:21;;;;;;;9.27;7.27;;;1.10;99.90;;;;;;5053139;28;20519;-59
2022/12/08 05:07:48;;;;;;;9.50;8.50;;;1.10;99.90;;;;;;5053123;28;20800;-59
2022/12/08 05:10:16;;;;;;;8.77;7.53;;;1.20;99.90;;;;;;5053476;28;20452;-60
2022/12/08 05:12:43;;;;;;;10.57;8.40;;;1.10;99.90;;;;;;5053142;28;20451;-60
2022/12/08 05:15:11;;;;;;;9.63;7.87;;;1.10;99.90;;;;;;5053269;28;20445;-60
2022/12/08 05:17:39;;;;;;;10.83;7.60;;;1.10;99.90;;;;;;5053335;28;20446;-59
2022/12/08 05:20:09;;;;;;;8.60;7.70;;;1.10;99.90;;;;;;5053132;28;20449;-59
2022/12/08 05:22:36;;;;;;;8.83;6.87;;;1.10;99.90;;;;;;5053691;28;20793;-59
2022/12/08 05:25:04;;;;;;;9.00;8.20;;;1.20;99.90;;;;;;5053033;28;20456;-59
2022/12/08 05:27:31;;;;;;;10.60;7.70;;;1.20;99.90;;;;;;5051707;28;20848;-59
2022/12/08 05:29:59;;;;;;;9.87;8.50;;;1.20;99.90;;;;;;5053192;28;20979;-60
2022/12/08 05:32:26;;;;;;;11.63;8.27;;;1.10;99.90;;;;;;5052785;28;20449;-59
2022/12/08 05:34:54;;;;;;;11.67;9.10;;;1.20;99.90;;;;;;5053289;28;20471;-59
2022/12/08 05:37:23;;;;;;;9.93;7.83;;;1.20;99.90;;;;;;5052690;28;20457;-59
2022/12/08 05:39:50;;;;;;;9.50;7.30;;;1.20;99.90;;;;;;5053174;28;20468;-59
2022/12/08 05:42:18;;;;;;;11.13;8.03;;;1.20;99.90;;;;;;5053061;28;20480;-59
2022/12/08 05:44:45;;;;;;;10.37;7.90;;;1.30;99.90;;;;;;5052798;28;20803;-59
2022/12/08 05:47:12;;;;;;;13.77;9.10;;;1.20;99.90;;;;;;5052561;28;20485;-60
2022/12/08 05:49:40;;;;;;;10.30;8.77;;;1.10;99.90;;;;;;5053198;28;20460;-59
2022/12/08 05:52:07;;;;;;;11.43;8.00;;;1.10;99.90;;;;;;5052673;28;20453;-59
2022/12/08 05:54:36;;;;;;;13.20;8.87;;;1.10;99.90;;;;;;5052633;28;20449;-60
2022/12/08 05:57:04;;;;;;;15.40;9.40;;;1.00;99.90;;;;;;5052715;28;20552;-59
2022/12/08 05:59:31;;;;;;;10.73;9.33;;;0.90;99.90;;;;;;5052495;28;20457;-60
2022/12/08 06:01:59;;;;;;;11.20;8.10;;;1.00;99.90;;;;;;5052936;28;20567;-60
2022/12/08 06:04:26;;;;;;;12.47;7.83;;;1.00;99.90;;;;;;5056737;28;20453;-59
2022/12/08 06:06:54;;;;;;;11.23;8.70;;;1.00;99.90;;;;;;5056706;28;20492;-59
2022/12/08 06:09:22;;;;;;;15.40;8.27;;;1.00;99.90;;;;;;5056359;28;20453;-59
2022/12/08 06:11:51;;;;;;;10.10;9.10;;;1.00;99.90;;;;;;5056111;28;20453;-59
2022/12/08 06:14:18;;;;;;;13.40;7.83;;;0.90;99.90;;;;;;5056055;28;20459;-59
2022/12/08 06:16:46;;;;;;;10.83;8.03;;;0.90;99.90;;;;;;5056297;28;20461;-60
2022/12/08 06:19:13;;;;;;;9.87;8.20;;;0.90;99.90;;;;;;5056207;28;20455;-60
2022/12/08 06:21:41;;;;;;;12.43;8.47;;;1.00;99.90;;;;;;5056440;28;20445;-60
2022/12/08 06:24:09;;;;;;;10.10;7.90;;;1.00;99.90;;;;;;5056037;28;20451;-60
2022/12/08 06:26:36;;;;;;;8.80;7.50;;;1.00;99.90;;;;;;5055759;28;20488;-59
2022/12/08 06:29:05;;;;;;;7.90;6.43;;;0.90;99.90;;;;;;5055758;28;20480;-59
2022/12/08 06:31:32;;;;;;;10.50;7.33;;;0.90;99.90;;;;;;5055873;28;20459;-59
2022/12/08 06:34:00;;;;;;;8.30;7.40;;;1.00;99.90;;;;;;5055927;28;20471;-59
2022/12/08 06:36:29;;;;;;;11.23;7.67;;;1.00;99.90;;;;;;5055654;28;20461;-60
2022/12/08 06:38:56;;;;;;;8.60;7.40;;;1.00;99.90;;;;;;5055832;28;20445;-61
2022/12/08 06:41:24;;;;;;;10.80;8.80;;;1.00;99.90;;;;;;5055939;28;20811;-60
2022/12/08 06:43:52;;;;;;;11.03;8.43;;;0.90;99.90;;;;;;5055746;28;20449;-60
2022/12/08 06:46:21;;;;;;;8.60;7.37;;;0.90;99.90;;;;;;5055122;28;21000;-59
2022/12/08 06:48:49;;;;;;;10.20;7.30;;;0.80;99.90;;;;;;5055658;28;20445;-60
2022/12/08 06:51:18;;;;;;;11.87;8.23;;;0.90;99.90;;;;;;5055544;28;20449;-60
2022/12/08 06:53:46;;;;;;;10.67;7.73;;;0.80;99.90;;;;;;5055216;28;20456;-61
2022/12/08 06:56:18;;;;;;;11.30;7.87;;;0.70;99.90;;;;;;5055623;28;20469;-61
2022/12/08 06:58:47;;;;;;;11.90;8.90;;;0.80;99.90;;;;;;5055622;28;20902;-60
2022/12/08 07:01:15;;;;;;;11.93;9.47;;;0.90;99.90;;;;;;5055323;28;20500;-61
2022/12/08 07:03:45;;;;;;;11.80;9.03;;;0.90;99.90;;;;;;5055068;28;20452;-61
2022/12/08 07:06:16;;;;;;;13.30;8.77;;;0.90;99.90;;;;;;5055264;28;20571;-60
2022/12/08 07:08:43;;;;;;;10.30;8.40;;;0.90;99.90;;;;;;5055169;28;20438;-60
2022/12/08 07:11:12;;;;;;;14.33;8.47;;;0.90;99.90;;;;;;5055399;28;20869;-60
2022/12/08 07:13:39;;;;;;;11.17;7.73;;;0.90;99.90;;;;;;5054540;28;20528;-60
2022/12/08 07:16:08;;;;;;;9.07;8.07;;;0.80;99.90;;;;;;5055294;28;20571;-60
2022/12/08 07:18:36;;;;;;;9.00;7.87;;;0.90;99.90;;;;;;5055078;28;20449;-61
2022/12/08 07:21:08;;;;;;;11.80;8.57;;;0.90;99.90;;;;;;5055102;28;20488;-60
2022/12/08 07:23:36;;;;;;;10.83;7.57;;;1.00;99.90;;;;;;5054867;28;20453;-61
2022/12/08 07:26:05;;;;;;;7.77;6.63;;;1.00;99.90;;;;;;5054758;28;20492;-60
2022/12/08 07:28:33;;;;;;;9.90;8.30;;;1.00;99.90;;;;;;5054408;28;20484;-60
2022/12/08 07:31:01;;;;;;;11.57;9.00;;;1.10;99.90;;;;;;5054732;28;20446;-60
2022/12/08 07:33:28;;;;;;;9.60;8.10;;;1.00;99.90;;;;;;5054913;28;20453;-60
2022/12/08 07:35:57;;;;;;;9.37;7.80;;;1.10;99.90;;;;;;5054413;28;20552;-60
2022/12/08 07:38:26;;;;;;;9.47;8.47;;;1.10;99.90;;;;;;5054431;28;20441;-60
2022/12/08 07:40:54;;;;;;;8.00;6.80;;;1.20;99.90;;;;;;5054555;28;20880;-60
2022/12/08 07:43:22;;;;;;;8.97;7.67;;;1.20;99.90;;;;;;5054343;28;20948;-61
2022/12/08 07:45:50;;;;;;;8.60;6.53;;;1.20;99.90;;;;;;5054082;28;20997;-61
2022/12/08 07:48:18;;;;;;;11.13;8.00;;;1.10;99.90;;;;;;5054235;28;20449;-61
2022/12/08 07:50:46;;;;;;;9.10;8.20;;;1.20;99.90;;;;;;5054307;28;20540;-61
2022/12/08 07:53:14;;;;;;;12.90;7.87;;;1.20;99.90;;;;;;5054557;28;20463;-61
2022/12/08 07:55:43;;;;;;;8.00;7.20;;;1.20;99.90;;;;;;5054393;28;20484;-61
2022/12/08 07:58:11;;;;;;;8.67;7.77;;;1.30;99.90;;;;;;5054448;28;20781;-61
2022/12/08 08:00:39;;;;;;;12.60;7.80;;;1.40;99.90;;;;;;5054193;28;20532;-61
2022/12/08 08:03:07;;;;;;;7.80;7.00;;;1.40;99.90;;;;;;5054344;28;20460;-61
2022/12/08 08:05:35;;;;;;;9.53;7.97;;;1.50;99.90;;;;;;5053909;28;20963;-60
2022/12/08 08:08:02;;;;;;;7.93;6.93;;;1.60;99.90;;;;;;5053972;28;20809;-60
2022/12/08 08:10:30;;;;;;;8.10;7.30;;;1.70;99.90;;;;;;5053990;28;20453;-60
2022/12/08 08:13:00;;;;;;;9.70;7.40;;;1.70;99.90;;;;;;5054096;28;20479;-62
2022/12/08 08:15:29;;;;;;;11.20;6.70;;;1.70;99.90;;;;;;5053722;28;20472;-61
2022/12/08 08:17:56;;;;;;;10.00;7.57;;;1.70;99.90;;;;;;5053681;28;20441;-61
2022/12/08 08:20:24;;;;;;;9.37;6.93;;;1.60;99.90;;;;;;5053643;28;20452;-61
2022/12/08 08:22:52;;;;;;;11.27;7.70;;;1.60;99.90;;;;;;5054042;28;20452;-61
2022/12/08 08:25:22;;;;;;;8.43;7.63;;;1.60;99.90;;;;;;5053255;28;20503;-61
2022/12/08 08:27:50;;;;;;;11.17;8.17;;;1.80;99.90;;;;;;5053257;28;20485;-61
2022/12/08 08:30:19;;;;;;;10.43;8.23;;;1.80;99.90;;;;;;5053762;28;20464;-61
2022/12/08 08:32:46;;;;;;;7.43;6.47;;;1.80;99.90;;;;;;5053149;28;20445;-61
2022/12/08 08:35:14;;;;;;;7.70;6.90;;;1.90;99.90;;;;;;5053343;28;20971;-61
2022/12/08 08:37:42;;;;;;;12.40;8.10;;;2.00;99.90;;;;;;5053717;28;20442;-61
2022/12/08 08:40:09;;;;;;;9.23;7.10;;;2.00;99.90;;;;;;5053457;28;21130;-61
2022/12/08 08:42:37;;;;;;;8.43;7.53;;;2.10;99.90;;;;;;5053132;28;20448;-60
2022/12/08 08:45:05;;;;;;;8.87;7.20;;;2.20;99.90;;;;;;5053073;28;20544;-61
2022/12/08 08:47:34;;;;;;;9.20;7.63;;;2.30;99.90;;;;;;5053172;28;20798;-62
2022/12/08 08:50:02;;;;;;;8.43;7.33;;;2.20;99.90;;;;;;5053154;28;20449;-61
2022/12/08 08:52:29;;;;;;;12.83;9.17;;;2.30;99.90;;;;;;5053478;28;20445;-62
2022/12/08 08:54:56;;;;;;;10.30;7.40;;;2.20;99.90;;;;;;5053173;28;20457;-62
2022/12/08 08:57:27;;;;;;;8.13;6.30;;;2.20;99.90;;;;;;5053624;28;20436;-62
2022/12/08 08:59:54;;;;;;;8.57;7.70;;;2.20;99.90;;;;;;5053596;28;20435;-61
2022/12/08 09:02:22;;;;;;;12.70;8.57;;;2.30;99.90;;;;;;5053491;28;20449;-62
2022/12/08 09:04:51;;;;;;;10.50;8.53;;;2.40;99.90;;;;;;5053041;28;20532;-62
2022/12/08 09:07:18;;;;;;;16.27;7.50;;;2.50;99.90;;;;;;5052882;28;20489;-61
2022/12/08 09:09:46;;;;;;;10.53;7.93;;;2.60;99.90;;;;;;5052973;28;20453;-61
2022/12/08 09:12:14;;;;;;;9.43;6.70;;;2.60;99.90;;;;;;5052961;28;20441;-61
2022/12/08 09:14:41;;;;;;;9.70;8.40;;;2.60;99.90;;;;;;5053116;28;20453;-62
2022/12/08 09:17:09;;;;;;;10.33;7.80;;;2.60;99.90;;;;;;5052760;28;20465;-62
2022/12/08 09:19:36;;;;;;;7.90;6.40;;;2.70;99.90;;;;;;5052376;28;20971;-62
2022/12/08 09:22:06;;;;;;;9.77;7.30;;;2.80;99.90;;;;;;5052485;28;20778;-62
2022/12/08 09:24:33;;;;;;;11.00;7.73;;;2.80;99.90;;;;;;5052566;28;20465;-62
2022/12/08 09:27:01;;;;;;;7.97;7.10;;;2.80;99.90;;;;;;5052725;28;20485;-61
2022/12/08 09:29:28;;;;;;;9.80;6.50;;;2.80;99.90;;;;;;5052505;28;20955;-62
2022/12/08 09:31:56;;;;;;;8.13;7.30;;;2.70;99.90;;;;;;5052561;28;20449;-62
2022/12/08 09:34:23;;;;;;;7.60;6.83;;;2.70;99.90;;;;;;5052704;28;20511;-63
2022/12/08 09:36:51;;;;;;;12.30;8.60;;;2.80;99.90;;;;;;5052671;28;20461;-62
2022/12/08 09:39:20;;;;;;;7.33;6.63;;;2.80;99.90;;;;;;5056424;28;20449;-62
2022/12/08 09:41:59;;;;;;;9.27;7.83;;;2.90;99.90;;;;;;5057099;28;20451;-62
2022/12/08 09:44:44;;;;;;;8.30;6.70;;;3.00;99.90;;;;;;5056773;28;20455;-62
2022/12/08 09:47:21;;;;;;;8.40;7.50;;;2.90;99.90;;;;;;5056397;28;20524;-62
2022/12/08 09:49:55;;;;;;;12.60;7.87;;;3.00;99.90;;;;;;5056943;28;20522;-62
2022/12/08 09:52:26;;;;;;;12.97;7.40;;;3.00;99.90;;;;;;5056403;28;20502;-62
2022/12/08 09:54:59;;;;;;;8.47;7.67;;;3.00;99.90;;;;;;5056775;28;20470;-61
2022/12/08 09:57:27;;;;;;;10.27;7.50;;;3.00;99.90;;;;;;5056319;28;20433;-62
2022/12/08 09:59:59;;;;;;;10.50;7.90;;;3.10;99.90;;;;;;5056143;28;20461;-61
2022/12/08 10:02:30;;;;;;;9.10;8.17;;;3.20;99.90;;;;;;5056670;28;20918;-62
2022/12/08 10:04:59;;;;;;;8.60;7.80;;;3.20;99.90;;;;;;5056004;28;20900;-61
2022/12/08 10:07:36;;;;;;;8.97;7.37;;;3.30;99.90;;;;;;5056195;28;21020;-61
2022/12/08 10:10:14;;;;;;;7.60;6.63;;;3.40;99.90;;;;;;5056080;28;20441;-63
2022/12/08 10:12:46;;;;;;;8.20;7.40;;;3.40;99.90;;;;;;5056310;28;20465;-63
2022/12/08 10:15:36;;;;;;;9.67;7.10;;;3.60;99.90;;;;;;5056203;28;20552;-62
2022/12/08 10:18:10;;;;;;;6.70;5.30;;;3.70;99.90;;;;;;5056204;28;20509;-63
2022/12/08 10:20:40;;;;;;;8.03;6.90;;;3.80;99.90;;;;;;5055985;28;20524;-63
2022/12/08 10:23:14;;;;;;;6.20;5.67;;;3.90;99.90;;;;;;5056123;28;20437;-63
2022/12/08 10:25:48;;;;;;;7.67;6.23;;;4.20;99.90;;;;;;5055985;28;20472;-62
2022/12/08 10:28:15;;;;;;;9.40;6.40;;;4.30;99.90;;;;;;5055987;28;20485;-62
2022/12/08 10:30:43;;;;;;;7.80;6.90;;;4.70;99.90;;;;;;5055588;28;20923;-62
2022/12/08 10:33:16;;;;;;;6.83;6.23;;;5.50;99.90;;;;;;5055831;28;20536;-63
2022/12/08 10:35:46;;;;;;;6.97;5.77;;;6.70;99.90;;;;;;5055595;28;20473;-63
2022/12/08 10:38:20;;;;;;;5.50;5.00;;;7.80;99.90;;;;;;5055792;28;21153;-63
2022/12/08 10:40:52;;;;;;;6.80;5.97;;;9.10;99.90;;;;;;5055895;28;20429;-63
2022/12/08 10:43:24;;;;;;;7.53;6.07;;;9.50;99.90;;;;;;5055642;28;20950;-64
2022/12/08 10:45:52;;;;;;;5.80;5.20;;;8.70;99.90;;;;;;5055327;28;20556;-63
2022/12/08 10:48:22;;;;;;;5.10;4.70;;;7.80;99.90;;;;;;5055209;28;20813;-63
2022/12/08 10:50:56;;;;;;;6.03;5.30;;;7.10;99.90;;;;;;5055571;28;20449;-62
2022/12/08 10:53:25;;;;;;;7.37;6.20;;;6.80;99.90;;;;;;5055809;28;20789;-63
2022/12/08 10:56:07;;;;;;;6.63;5.80;;;7.00;99.90;;;;;;5055796;28;20588;-63
2022/12/08 10:58:39;;;;;;;6.90;5.60;;;6.70;99.90;;;;;;5055680;28;20426;-63
2022/12/08 11:01:11;;;;;;;6.63;5.80;;;6.30;99.90;;;;;;5055417;28;20912;-62
2022/12/08 11:03:46;;;;;;;5.83;5.30;;;6.20;99.90;;;;;;5054955;28;20433;-63
2022/12/08 11:06:18;;;;;;;6.47;5.87;;;6.10;99.90;;;;;;5055163;28;20472;-62
2022/12/08 11:08:49;;;;;;;7.60;6.87;;;6.10;99.90;;;;;;5055000;28;20476;-62
2022/12/08 11:11:19;;;;;;;5.67;4.73;;;6.00;99.90;;;;;;5054867;28;21014;-62
2022/12/08 11:13:50;;;;;;;6.50;5.20;;;6.00;99.90;;;;;;5054910;28;20434;-61
2022/12/08 11:16:19;;;;;;;6.63;4.60;;;6.20;99.90;;;;;;5054713;28;20476;-63
2022/12/08 11:18:55;;;;;;;7.70;5.23;;;7.10;99.90;;;;;;5054737;28;20452;-62
2022/12/08 11:21:35;;;;;;;7.37;5.30;;;7.00;99.90;;;;;;5054775;28;20946;-63
2022/12/08 11:24:21;;;;;;;9.20;5.30;;;6.50;99.90;;;;;;5055037;28;20441;-62
2022/12/08 11:26:54;;;;;;;6.53;5.83;;;6.40;99.90;;;;;;5054416;28;20469;-63
2022/12/08 11:29:22;;;;;;;5.23;4.73;;;6.10;99.90;;;;;;5054747;28;20440;-63
2022/12/08 11:31:53;;;;;;;5.57;5.07;;;6.00;99.90;;;;;;5047298;28;20944;-62
2022/12/08 11:34:26;;;;;;;7.70;6.30;;;5.90;99.90;;;;;;5044621;28;20465;-63
2022/12/08 11:36:55;;;;;;;9.40;5.20;;;5.90;99.90;;;;;;5053583;28;20481;-63
2022/12/08 11:39:26;;;;;;;8.67;5.93;;;5.90;99.90;;;;;;5054422;28;20456;-63
2022/12/08 11:41:56;;;;;;;5.97;4.90;;;5.90;99.90;;;;;;5054892;28;20429;-62
2022/12/08 11:44:33;;;;;;;6.63;4.87;;;5.90;99.90;;;;;;5054521;28;20442;-62
2022/12/08 11:47:08;;;;;;;5.77;5.17;;;5.80;99.90;;;;;;5054497;28;20569;-61
2022/12/08 11:49:38;;;;;;;4.70;4.30;;;5.80;99.90;;;;;;5054363;28;20433;-62
2022/12/08 11:52:12;;;;;;;5.73;5.00;;;5.80;99.90;;;;;;5054207;28;20927;-62
2022/12/08 11:54:45;;;;;;;4.73;4.30;;;5.80;99.90;;;;;;5054357;28;20547;-62
2022/12/08 11:57:19;;;;;;;9.13;5.43;;;5.60;99.90;;;;;;5054158;28;20974;-61
2022/12/08 11:59:50;;;;;;;5.70;5.10;;;5.60;99.90;;;;;;5054194;28;20487;-62
2022/12/08 12:02:20;;;;;;;5.50;5.00;;;5.60;99.90;;;;;;5053989;28;20429;-62
2022/12/08 12:04:54;;;;;;;5.60;5.10;;;5.60;99.90;;;;;;5053587;28;20436;-62
2022/12/08 12:07:36;;;;;;;8.00;5.73;;;5.70;99.90;;;;;;5054036;28;20472;-63
2022/12/08 12:10:36;;;;;;;6.43;4.90;;;5.60;99.90;;;;;;5053900;28;20441;-63
2022/12/08 12:13:19;;;;;;;9.23;6.07;;;5.60;99.90;;;;;;5053859;28;20430;-63
2022/12/08 12:16:17;;;;;;;6.63;6.03;;;5.60;99.90;;;;;;5053718;28;20831;-63
2022/12/08 12:18:47;;;;;;;7.00;5.20;;;5.50;99.90;;;;;;5053641;28;20440;-62
2022/12/08 12:21:20;;;;;;;4.70;4.30;;;5.50;99.90;;;;;;5053588;28;20449;-63
2022/12/08 12:23:53;;;;;;;5.97;5.00;;;5.40;99.90;;;;;;5053341;28;20784;-63
2022/12/08 12:26:23;;;;;;;4.83;4.40;;;5.20;99.90;;;;;;5054072;28;20484;-63
2022/12/08 12:28:56;;;;;;;5.70;5.20;;;5.10;99.90;;;;;;5053579;28;20499;-63
2022/12/08 12:31:26;;;;;;;6.80;4.70;;;5.20;99.90;;;;;;5053537;28;20430;-62
2022/12/08 12:34:03;;;;;;;5.40;4.50;;;5.20;99.90;;;;;;5053250;28;20502;-63
2022/12/08 12:36:32;;;;;;;5.63;5.03;;;5.30;99.90;;;;;;5053294;28;20469;-63
2022/12/08 12:39:02;;;;;;;4.50;4.10;;;5.30;99.90;;;;;;5053277;28;20445;-62
2022/12/08 12:41:38;;;;;;;10.13;6.90;;;5.30;99.90;;;;;;5053432;28;20457;-62
2022/12/08 12:44:25;;;;;;;6.37;5.00;;;5.30;99.90;;;;;;5053028;28;20521;-62
2022/12/08 12:46:58;;;;;;;6.23;5.03;;;5.30;99.90;;;;;;5053398;28;20465;-61
2022/12/08 12:50:06;;;;;;;5.53;5.03;;;5.40;99.90;;;;;;5053798;28;20564;-61
2022/12/08 12:52:49;;;;;;;6.30;5.30;;;5.30;99.90;;;;;;5051279;28;20468;-62
2022/12/08 12:55:41;;;;;;;4.97;4.50;;;5.30;99.90;;;;;;5053018;28;20491;-62
2022/12/08 12:58:21;;;;;;;5.63;4.97;;;5.30;99.90;;;;;;5053180;28;20429;-62
2022/12/08 13:01:11;;;;;;;6.20;5.60;;;5.20;99.90;;;;;;5053420;28;20437;-62
2022/12/08 13:03:41;;;;;;;5.80;4.73;;;5.20;99.90;;;;;;5052902;28;20445;-62
2022/12/08 13:06:12;;;;;;;7.47;5.10;;;5.20;99.90;;;;;;5052895;28;20461;-62
2022/12/08 13:08:42;;;;;;;5.93;5.10;;;5.10;99.90;;;;;;5053295;28;20465;-62
2022/12/08 13:11:11;;;;;;;6.70;5.30;;;5.10;99.90;;;;;;5052761;28;20459;-61
2022/12/08 13:13:55;;;;;;;7.67;5.57;;;5.20;99.90;;;;;;5052890;28;20932;-62
2022/12/08 13:16:26;;;;;;;6.93;5.03;;;5.20;99.90;;;;;;5052922;28;20461;-62
2022/12/08 13:18:58;;;;;;;5.90;5.30;;;5.20;99.90;;;;;;5053295;28;20428;-63
2022/12/08 13:21:32;;;;;;;5.80;5.20;;;5.10;99.90;;;;;;5052975;28;20993;-63